Time;durP1;ratioP1;P1;durP2;ratioP2;P2;SDS_P1;SDS_P2;PMS_P1;PMS_P2;Temp;Humidity;BMP_temperature;BMP_pressure;BME280_temperature;BME280_humidity;BME280_pressure;Samples;Min_cycle;Max_cycle;Signal;HPM_P1;HPM_P2
2023/08/24 00:01:02;;;;;;;;;;;26.30;62.40;;;;;;5051848;28;19908;-56
2023/08/24 00:03:28;;;;;;;;;;;26.30;62.40;;;;;;5053209;28;19909;-55
2023/08/24 00:05:54;;;;;;;;;;;26.30;62.40;;;;;;5051986;28;20294;-54
2023/08/24 00:08:19;;;;;;;;;;;26.30;62.30;;;;;;5053084;28;19947;-54
2023/08/24 00:10:46;;;;;;;;;;;26.30;62.40;;;;;;5052086;28;19948;-55
2023/08/24 00:13:12;;;;;;;;;;;26.30;62.40;;;;;;5052875;28;20003;-55
2023/08/24 00:15:39;;;;;;;;;;;26.30;62.40;;;;;;5053021;28;20344;-54
2023/08/24 00:18:04;;;;;;;;;;;26.30;62.40;;;;;;5053061;28;19935;-54
2023/08/24 00:20:32;;;;;;;;;;;26.30;62.40;;;;;;5051616;28;19913;-54
2023/08/24 00:22:58;;;;;;;;;;;26.30;62.60;;;;;;5068083;28;20222;-54
2023/08/24 00:25:23;;;;;;;;;;;26.30;62.50;;;;;;5052167;28;19909;-54
2023/08/24 00:27:49;;;;;;;;;;;26.30;62.50;;;;;;5051624;28;19970;-54
2023/08/24 00:30:14;;;;;;;;;;;26.30;62.50;;;;;;5051611;28;19913;-55
2023/08/24 00:32:40;;;;;;;;;;;26.20;62.50;;;;;;5052761;28;20369;-55
2023/08/24 00:35:06;;;;;;;;;;;26.20;62.50;;;;;;5051524;28;19913;-54
2023/08/24 00:37:32;;;;;;;;;;;26.30;62.60;;;;;;5052813;28;20368;-55
2023/08/24 00:39:59;;;;;;;;;;;26.20;62.60;;;;;;5047222;28;19954;-55
2023/08/24 00:42:25;;;;;;;;;;;26.20;62.60;;;;;;5050462;28;19971;-54
2023/08/24 00:44:51;;;;;;;;;;;26.20;62.60;;;;;;5052953;28;19913;-54
2023/08/24 00:47:17;;;;;;;;;;;26.20;62.50;;;;;;5052769;28;19916;-55
2023/08/24 00:49:42;;;;;;;;;;;26.20;62.60;;;;;;5051553;28;19913;-55
2023/08/24 00:52:08;;;;;;;;;;;26.20;62.60;;;;;;5068260;28;19916;-55
2023/08/24 00:54:33;;;;;;;;;;;26.20;62.50;;;;;;5051716;28;19912;-55
2023/08/24 00:56:59;;;;;;;;;;;26.20;62.60;;;;;;5051307;28;20005;-54
2023/08/24 00:59:24;;;;;;;;;;;26.20;62.70;;;;;;5036726;28;19913;-54
2023/08/24 01:01:49;;;;;;;;;;;26.20;62.60;;;;;;5056635;28;19916;-55
2023/08/24 01:04:15;;;;;;;;;;;26.20;62.70;;;;;;5055303;28;19927;-54
2023/08/24 01:06:41;;;;;;;;;;;26.20;62.60;;;;;;5056568;28;20323;-54
2023/08/24 01:09:06;;;;;;;;;;;26.20;62.70;;;;;;5054834;28;19908;-54
2023/08/24 01:11:41;;;;;;;;;;;26.20;62.80;;;;;;5070806;28;19920;-54
2023/08/24 01:14:16;;;;;;;;;;;26.20;62.80;;;;;;5055305;28;19920;-55
2023/08/24 01:16:43;;;;;;;;;;;26.20;62.80;;;;;;5056238;28;19912;-55
2023/08/24 01:19:11;;;;;;;;;;;26.20;62.70;;;;;;5054970;28;19962;-55
2023/08/24 01:21:36;;;;;;;;;;;26.20;62.70;;;;;;5056163;28;19913;-55
2023/08/24 01:24:26;;;;;;;;;;;26.20;62.80;;;;;;5056229;28;19943;-55
2023/08/24 01:26:51;;;;;;;;;;;26.20;62.80;;;;;;5034980;28;19913;-55
2023/08/24 01:29:17;;;;;;;;;;;26.20;62.80;;;;;;5037563;28;20008;-55
2023/08/24 01:31:42;;;;;;;;;;;26.20;62.80;;;;;;5071521;28;19909;-54
2023/08/24 01:34:07;;;;;;;;;;;26.20;62.80;;;;;;5067914;28;19917;-54
2023/08/24 01:36:33;;;;;;;;;;;26.20;62.90;;;;;;5071279;28;19916;-55
2023/08/24 01:39:33;;;;;;;;;;;26.20;62.90;;;;;;5071363;28;19915;-55
2023/08/24 01:42:00;;;;;;;;;;;26.20;62.90;;;;;;5052973;28;19952;-53
2023/08/24 01:44:26;;;;;;;;;;;26.20;62.80;;;;;;5055207;28;19920;-54
2023/08/24 01:46:51;;;;;;;;;;;26.20;62.90;;;;;;5071271;28;19913;-54
2023/08/24 01:49:17;;;;;;;;;;;26.20;63.00;;;;;;5053685;28;20331;-55
2023/08/24 01:51:42;;;;;;;;;;;26.20;63.00;;;;;;5054298;28;19909;-55
2023/08/24 01:54:08;;;;;;;;;;;26.20;63.00;;;;;;5055604;28;19913;-55
2023/08/24 01:56:34;;;;;;;;;;;26.20;62.90;;;;;;5036870;28;19909;-54
2023/08/24 01:58:59;;;;;;;;;;;26.10;62.90;;;;;;5042330;28;20261;-54
2023/08/24 02:01:25;;;;;;;;;;;26.20;62.90;;;;;;5054130;28;19917;-55
2023/08/24 02:03:50;;;;;;;;;;;26.10;63.70;;;;;;5054312;28;19913;-55
2023/08/24 02:06:15;;;;;;;;;;;26.10;63.00;;;;;;5054081;28;19908;-55
2023/08/24 02:08:41;;;;;;;;;;;26.10;63.00;;;;;;5054295;28;19925;-54
2023/08/24 02:11:07;;;;;;;;;;;26.10;63.00;;;;;;5055245;28;19915;-54
2023/08/24 02:13:32;;;;;;;;;;;26.10;63.10;;;;;;5054975;28;19920;-54
2023/08/24 02:16:01;;;;;;;;;;;26.10;63.20;;;;;;5055232;28;20264;-54
2023/08/24 02:18:26;;;;;;;;;;;26.10;63.20;;;;;;5053918;28;19921;-54
2023/08/24 02:20:52;;;;;;;;;;;26.10;63.20;;;;;;5055088;28;19909;-55
2023/08/24 02:23:18;;;;;;;;;;;26.10;63.20;;;;;;5055084;28;19958;-53
2023/08/24 02:25:43;;;;;;;;;;;26.10;63.10;;;;;;5054247;28;19917;-54
2023/08/24 02:28:09;;;;;;;;;;;26.10;63.20;;;;;;5054901;28;19999;-54
2023/08/24 02:30:37;;;;;;;;;;;26.10;63.20;;;;;;5050224;28;20394;-54
2023/08/24 02:33:02;;;;;;;;;;;26.10;63.20;;;;;;5054801;28;19965;-54
2023/08/24 02:35:28;;;;;;;;;;;26.10;63.30;;;;;;5053818;28;19956;-53
2023/08/24 02:37:55;;;;;;;;;;;26.10;63.20;;;;;;5054821;28;19909;-55
2023/08/24 02:40:20;;;;;;;;;;;26.10;63.30;;;;;;5053904;28;19913;-54
2023/08/24 02:42:45;;;;;;;;;;;26.10;63.20;;;;;;5053423;28;20389;-55
2023/08/24 02:45:11;;;;;;;;;;;26.10;63.30;;;;;;5054668;28;20285;-55
2023/08/24 02:47:36;;;;;;;;;;;26.10;63.30;;;;;;5054593;28;20323;-55
2023/08/24 02:50:02;;;;;;;;;;;26.10;63.30;;;;;;5052525;28;19922;-55
2023/08/24 02:52:27;;;;;;;;;;;26.10;63.40;;;;;;5054567;28;19947;-55
2023/08/24 02:54:53;;;;;;;;;;;26.00;63.30;;;;;;5053613;28;19913;-53
2023/08/24 02:57:18;;;;;;;;;;;26.00;64.10;;;;;;5054397;28;19955;-55
2023/08/24 02:59:44;;;;;;;;;;;26.10;63.40;;;;;;5052476;28;19917;-55
2023/08/24 03:02:09;;;;;;;;;;;26.00;63.30;;;;;;5054306;28;19912;-54
2023/08/24 03:04:35;;;;;;;;;;;26.00;63.40;;;;;;5052138;28;20403;-55
2023/08/24 03:07:01;;;;;;;;;;;26.10;63.40;;;;;;5054112;28;19919;-55
2023/08/24 03:09:26;;;;;;;;;;;26.00;63.40;;;;;;5053420;28;20253;-54
2023/08/24 03:11:52;;;;;;;;;;;26.00;63.40;;;;;;5054138;28;19912;-54
2023/08/24 03:14:18;;;;;;;;;;;26.00;63.40;;;;;;5053706;28;20399;-53
2023/08/24 03:16:44;;;;;;;;;;;26.00;63.40;;;;;;5069297;28;19913;-54
2023/08/24 03:19:10;;;;;;;;;;;26.10;63.50;;;;;;5051958;28;19944;-54
2023/08/24 03:21:36;;;;;;;;;;;26.10;63.50;;;;;;5053394;28;19909;-54
2023/08/24 03:24:04;;;;;;;;;;;26.00;63.50;;;;;;5053795;28;19912;-55
2023/08/24 03:26:30;;;;;;;;;;;26.00;63.60;;;;;;5053256;28;19908;-55
2023/08/24 03:28:55;;;;;;;;;;;26.00;63.60;;;;;;5052826;28;20405;-54
2023/08/24 03:31:21;;;;;;;;;;;26.00;64.40;;;;;;5052631;28;19916;-55
2023/08/24 03:33:46;;;;;;;;;;;26.00;63.70;;;;;;5053618;28;20357;-54
2023/08/24 03:36:12;;;;;;;;;;;26.00;63.60;;;;;;5052485;28;20337;-55
2023/08/24 03:38:38;;;;;;;;;;;26.00;63.60;;;;;;5053577;28;19909;-54
2023/08/24 03:41:03;;;;;;;;;;;26.00;63.70;;;;;;5052529;28;20388;-53
2023/08/24 03:43:33;;;;;;;;;;;26.00;63.80;;;;;;5053430;28;20280;-54
2023/08/24 03:45:58;;;;;;;;;;;26.00;63.80;;;;;;5053379;28;20287;-54
2023/08/24 03:48:24;;;;;;;;;;;25.90;63.70;;;;;;5053357;28;19915;-54
2023/08/24 03:50:49;;;;;;;;;;;25.90;63.70;;;;;;5052132;28;19912;-55
2023/08/24 03:53:15;;;;;;;;;;;26.00;63.80;;;;;;5053204;28;19913;-54
2023/08/24 03:55:41;;;;;;;;;;;25.90;63.80;;;;;;5052436;28;19940;-55
2023/08/24 03:58:06;;;;;;;;;;;25.90;63.80;;;;;;5053184;28;19935;-55
2023/08/24 04:00:32;;;;;;;;;;;25.90;63.80;;;;;;5051242;28;19916;-54
2023/08/24 04:02:57;;;;;;;;;;;25.90;63.80;;;;;;5053258;28;19941;-54
2023/08/24 04:05:23;;;;;;;;;;;26.00;63.90;;;;;;5051923;28;19955;-55
2023/08/24 04:07:48;;;;;;;;;;;25.90;63.80;;;;;;5053362;28;19909;-55
2023/08/24 04:10:14;;;;;;;;;;;26.00;63.90;;;;;;5051783;28;19970;-55
2023/08/24 04:12:39;;;;;;;;;;;25.90;63.80;;;;;;5035121;28;19913;-54
2023/08/24 04:15:05;;;;;;;;;;;26.00;63.90;;;;;;5049366;28;20258;-54
2023/08/24 04:17:30;;;;;;;;;;;26.00;63.90;;;;;;5053022;28;19955;-54
2023/08/24 04:19:56;;;;;;;;;;;25.90;63.80;;;;;;5051766;28;20381;-55
2023/08/24 04:22:21;;;;;;;;;;;25.90;63.90;;;;;;5052974;28;19913;-53
2023/08/24 04:24:47;;;;;;;;;;;25.90;64.00;;;;;;5052108;28;19915;-54
2023/08/24 04:27:12;;;;;;;;;;;25.90;63.90;;;;;;5052897;28;20015;-55
2023/08/24 04:29:37;;;;;;;;;;;25.90;64.00;;;;;;5051974;28;19963;-55
2023/08/24 04:32:03;;;;;;;;;;;25.90;63.90;;;;;;5052533;28;19909;-54
2023/08/24 04:34:28;;;;;;;;;;;25.90;63.80;;;;;;5052259;28;19912;-55
2023/08/24 04:36:54;;;;;;;;;;;25.90;63.90;;;;;;5049566;28;20242;-55
2023/08/24 04:39:20;;;;;;;;;;;25.90;63.90;;;;;;5052710;28;19957;-54
2023/08/24 04:41:45;;;;;;;;;;;25.90;63.90;;;;;;5052772;28;20351;-54
2023/08/24 04:44:10;;;;;;;;;;;25.90;64.00;;;;;;5051467;28;20011;-54
2023/08/24 04:46:36;;;;;;;;;;;25.90;64.00;;;;;;5052673;28;19908;-54
2023/08/24 04:49:02;;;;;;;;;;;25.90;63.80;;;;;;5034741;28;19912;-53
2023/08/24 04:51:29;;;;;;;;;;;25.90;63.90;;;;;;5034064;28;19928;-55
2023/08/24 04:53:54;;;;;;;;;;;25.90;64.80;;;;;;5052514;28;19913;-56
2023/08/24 04:56:20;;;;;;;;;;;25.90;63.90;;;;;;5036029;28;19909;-54
2023/08/24 04:58:56;;;;;;;;;;;25.90;63.80;;;;;;5032475;28;20020;-55
2023/08/24 05:01:22;;;;;;;;;;;25.90;64.00;;;;;;5041589;28;19917;-55
2023/08/24 05:03:47;;;;;;;;;;;25.90;64.10;;;;;;5051820;28;19913;-54
2023/08/24 05:06:13;;;;;;;;;;;25.90;64.20;;;;;;5051183;28;19991;-54
2023/08/24 05:08:38;;;;;;;;;;;25.90;64.00;;;;;;5051748;28;19939;-55
2023/08/24 05:11:12;;;;;;;;;;;25.90;64.20;;;;;;5051497;28;20495;-55
2023/08/24 05:13:38;;;;;;;;;;;25.90;64.20;;;;;;5052061;28;19995;-55
2023/08/24 05:16:03;;;;;;;;;;;25.90;64.20;;;;;;5052609;28;20389;-54
2023/08/24 05:18:29;;;;;;;;;;;25.90;64.20;;;;;;5052376;28;19909;-55
2023/08/24 05:20:54;;;;;;;;;;;25.90;64.20;;;;;;5050446;28;19920;-54
2023/08/24 05:23:19;;;;;;;;;;;25.90;64.10;;;;;;5050857;28;19916;-54
2023/08/24 05:25:45;;;;;;;;;;;25.90;64.20;;;;;;5051579;28;20003;-54
2023/08/24 05:28:10;;;;;;;;;;;25.90;64.20;;;;;;5052348;28;19909;-55
2023/08/24 05:30:36;;;;;;;;;;;25.90;64.20;;;;;;5051030;28;20492;-55
2023/08/24 05:33:01;;;;;;;;;;;25.80;64.20;;;;;;5050040;28;20365;-55
2023/08/24 05:35:27;;;;;;;;;;;25.90;64.20;;;;;;5051084;28;19924;-54
2023/08/24 05:37:52;;;;;;;;;;;25.90;64.30;;;;;;5051613;28;19920;-54
2023/08/24 05:40:18;;;;;;;;;;;25.90;64.20;;;;;;5052191;28;19915;-55
2023/08/24 05:42:43;;;;;;;;;;;25.90;64.30;;;;;;5050867;28;19916;-55
2023/08/24 05:45:09;;;;;;;;;;;25.90;65.00;;;;;;5054376;28;19909;-54
2023/08/24 05:47:34;;;;;;;;;;;25.90;64.30;;;;;;5055694;28;19935;-54
2023/08/24 05:50:00;;;;;;;;;;;25.80;64.20;;;;;;5055729;28;19956;-54
2023/08/24 05:52:25;;;;;;;;;;;25.80;64.30;;;;;;5054447;28;19912;-55
2023/08/24 05:54:51;;;;;;;;;;;25.80;64.40;;;;;;5054727;28;19919;-55
2023/08/24 05:57:16;;;;;;;;;;;25.80;64.50;;;;;;5055552;28;19909;-55
2023/08/24 05:59:42;;;;;;;;;;;25.90;64.60;;;;;;5053601;28;20380;-53
2023/08/24 06:02:07;;;;;;;;;;;25.80;65.30;;;;;;5055388;28;20359;-54
2023/08/24 06:04:33;;;;;;;;;;;25.80;64.50;;;;;;5055516;28;20270;-55
2023/08/24 06:06:58;;;;;;;;;;;25.80;64.60;;;;;;5044121;28;20077;-54
2023/08/24 06:09:23;;;;;;;;;;;25.80;65.20;;;;;;5035480;28;20292;-54
2023/08/24 06:11:49;;;;;;;;;;;25.80;64.50;;;;;;5035331;28;19909;-55
2023/08/24 06:14:15;;;;;;;;;;;25.80;64.60;;;;;;5044697;28;19928;-55
2023/08/24 06:16:40;;;;;;;;;;;25.80;64.60;;;;;;5054133;28;19913;-54
2023/08/24 06:19:06;;;;;;;;;;;25.80;64.60;;;;;;5055045;28;19908;-55
2023/08/24 06:21:31;;;;;;;;;;;25.80;64.60;;;;;;5053773;28;19962;-54
2023/08/24 06:23:57;;;;;;;;;;;25.80;64.70;;;;;;5054964;28;20365;-54
2023/08/24 06:26:22;;;;;;;;;;;25.80;64.70;;;;;;5053526;28;19959;-55
2023/08/24 06:28:48;;;;;;;;;;;25.80;64.60;;;;;;5054648;28;19909;-55
2023/08/24 06:31:14;;;;;;;;;;;25.80;64.70;;;;;;5054819;28;19909;-54
2023/08/24 06:33:40;;;;;;;;;;;25.80;64.70;;;;;;5054652;28;20383;-54
2023/08/24 06:36:05;;;;;;;;;;;25.80;64.80;;;;;;5053904;28;20014;-54
2023/08/24 06:38:31;;;;;;;;;;;25.80;64.70;;;;;;5036166;28;19913;-55
2023/08/24 06:40:59;;;;;;;;;;;25.80;64.60;;;;;;5052731;28;19913;-54
2023/08/24 06:43:25;;;;;;;;;;;25.80;64.80;;;;;;5034880;28;19993;-55
2023/08/24 06:45:51;;;;;;;;;;;25.80;64.80;;;;;;5034728;28;19948;-55
2023/08/24 06:48:17;;;;;;;;;;;25.80;64.70;;;;;;5034635;28;19909;-54
2023/08/24 06:50:43;;;;;;;;;;;25.80;64.80;;;;;;5035064;28;19909;-54
2023/08/24 06:53:08;;;;;;;;;;;25.70;64.80;;;;;;5053831;28;19935;-55
2023/08/24 06:55:34;;;;;;;;;;;25.80;64.70;;;;;;5052424;28;19958;-55
2023/08/24 06:57:59;;;;;;;;;;;25.80;64.70;;;;;;5052265;28;19913;-54
2023/08/24 07:00:26;;;;;;;;;;;25.80;64.70;;;;;;5053943;28;21569;-55
2023/08/24 07:02:52;;;;;;;;;;;25.70;64.70;;;;;;5054265;28;19955;-55
2023/08/24 07:05:20;;;;;;;;;;;25.80;64.80;;;;;;5054183;28;19913;-54
2023/08/24 07:07:47;;;;;;;;;;;25.70;64.70;;;;;;5052879;28;19917;-54
2023/08/24 07:10:12;;;;;;;;;;;25.80;64.80;;;;;;5054006;28;19944;-54
2023/08/24 07:12:40;;;;;;;;;;;25.80;64.90;;;;;;5054027;28;19916;-54
2023/08/24 07:15:06;;;;;;;;;;;25.70;64.70;;;;;;5053844;28;19975;-55
2023/08/24 07:17:32;;;;;;;;;;;25.60;64.70;;;;;;5053390;28;19925;-54
2023/08/24 07:19:57;;;;;;;;;;;25.70;64.80;;;;;;5053981;28;19916;-55
2023/08/24 07:22:23;;;;;;;;;;;25.70;64.80;;;;;;5052612;28;19912;-54
2023/08/24 07:24:52;;;;;;;;;;;25.80;65.00;;;;;;5046952;28;20408;-55
2023/08/24 07:27:17;;;;;;;;;;;25.70;64.70;;;;;;5052702;28;19938;-55
2023/08/24 07:29:43;;;;;;;;;;;25.70;64.80;;;;;;5052481;28;20288;-54
2023/08/24 07:32:08;;;;;;;;;;;25.80;64.70;;;;;;5069124;28;19955;-54
2023/08/24 07:34:34;;;;;;;;;;;25.70;64.80;;;;;;5052278;28;20003;-55
2023/08/24 07:36:59;;;;;;;;;;;25.70;64.60;;;;;;5052443;28;20027;-54
2023/08/24 07:39:25;;;;;;;;;;;25.70;64.50;;;;;;5067854;28;20362;-54
2023/08/24 07:41:51;;;;;;;;;;;25.70;64.60;;;;;;5052282;28;19908;-54
2023/08/24 07:44:16;;;;;;;;;;;25.70;64.40;;;;;;5052664;28;19916;-54
2023/08/24 07:46:42;;;;;;;;;;;25.70;64.40;;;;;;5053313;28;19960;-54
2023/08/24 07:49:07;;;;;;;;;;;25.70;64.40;;;;;;5053499;28;19963;-55
2023/08/24 07:51:33;;;;;;;;;;;25.80;64.50;;;;;;5052635;28;19909;-54
2023/08/24 07:53:59;;;;;;;;;;;25.70;64.30;;;;;;5052909;28;19927;-55
2023/08/24 07:56:24;;;;;;;;;;;25.80;64.40;;;;;;5050817;28;19958;-55
2023/08/24 07:58:50;;;;;;;;;;;25.80;64.40;;;;;;5053224;28;19956;-55
2023/08/24 08:01:15;;;;;;;;;;;25.80;64.30;;;;;;5053245;28;19909;-55
2023/08/24 08:03:41;;;;;;;;;;;25.70;64.20;;;;;;5053129;28;20368;-55
2023/08/24 08:06:06;;;;;;;;;;;25.80;64.30;;;;;;5046400;28;19935;-54
2023/08/24 08:08:32;;;;;;;;;;;25.80;64.40;;;;;;5045425;28;19916;-54
2023/08/24 08:10:58;;;;;;;;;;;25.80;64.30;;;;;;5053136;28;19927;-54
2023/08/24 08:13:23;;;;;;;;;;;25.80;64.40;;;;;;5052986;28;20369;-54
2023/08/24 08:15:49;;;;;;;;;;;25.80;64.00;;;;;;5051986;28;19913;-55
2023/08/24 08:18:14;;;;;;;;;;;25.80;64.00;;;;;;5053203;28;19909;-54
2023/08/24 08:20:40;;;;;;;;;;;25.70;63.90;;;;;;5052945;28;19915;-55
2023/08/24 08:23:05;;;;;;;;;;;25.80;64.10;;;;;;5051751;28;19912;-55
2023/08/24 08:25:31;;;;;;;;;;;25.80;63.90;;;;;;5051172;28;19913;-54
2023/08/24 08:27:56;;;;;;;;;;;25.80;63.90;;;;;;5052697;28;19954;-55
2023/08/24 08:30:21;;;;;;;;;;;25.80;63.60;;;;;;5052830;28;19912;-55
2023/08/24 08:32:47;;;;;;;;;;;25.80;63.60;;;;;;5052695;28;20269;-55
2023/08/24 08:35:13;;;;;;;;;;;25.80;63.70;;;;;;5051513;28;19913;-55
2023/08/24 08:37:39;;;;;;;;;;;25.80;63.50;;;;;;5051254;28;19912;-55
2023/08/24 08:40:09;;;;;;;;;;;25.80;63.80;;;;;;5052632;28;19908;-55
2023/08/24 08:42:34;;;;;;;;;;;25.80;63.70;;;;;;5052750;28;19913;-54
2023/08/24 08:45:02;;;;;;;;;;;25.80;63.50;;;;;;5068209;28;19916;-55
2023/08/24 08:47:28;;;;;;;;;;;25.80;63.60;;;;;;5051555;28;19917;-54
2023/08/24 08:49:54;;;;;;;;;;;25.80;63.40;;;;;;5052581;28;19916;-54
2023/08/24 08:52:19;;;;;;;;;;;25.80;63.40;;;;;;5066027;28;19913;-55
2023/08/24 08:54:45;;;;;;;;;;;25.80;63.00;;;;;;5051705;28;19920;-54
2023/08/24 08:57:10;;;;;;;;;;;25.80;63.00;;;;;;5052587;28;19948;-54
2023/08/24 08:59:36;;;;;;;;;;;25.80;62.80;;;;;;5051161;28;19959;-54
2023/08/24 09:02:03;;;;;;;;;;;25.70;62.30;;;;;;5048871;28;19923;-53
2023/08/24 09:04:32;;;;;;;;;;;25.80;62.00;;;;;;5052467;28;19916;-55
2023/08/24 09:06:57;;;;;;;;;;;25.80;61.90;;;;;;5050631;28;20373;-54
2023/08/24 09:09:24;;;;;;;;;;;25.80;61.90;;;;;;5052391;28;19916;-54
2023/08/24 09:11:49;;;;;;;;;;;25.80;62.30;;;;;;5052391;28;19951;-54
2023/08/24 09:14:15;;;;;;;;;;;25.80;61.90;;;;;;5067671;28;19924;-54
2023/08/24 09:16:43;;;;;;;;;;;25.90;62.40;;;;;;5049717;28;19917;-55
2023/08/24 09:19:10;;;;;;;;;;;25.90;61.60;;;;;;5050691;28;19921;-54
2023/08/24 09:21:36;;;;;;;;;;;25.80;61.70;;;;;;5054114;28;19912;-55
2023/08/24 09:24:01;;;;;;;;;;;25.80;61.60;;;;;;5054681;28;19950;-54
2023/08/24 09:26:30;;;;;;;;;;;25.90;61.50;;;;;;5054100;28;19909;-55
2023/08/24 09:28:55;;;;;;;;;;;25.90;61.80;;;;;;5056354;28;19909;-54
2023/08/24 09:31:21;;;;;;;;;;;25.90;61.90;;;;;;5054809;28;19962;-55
2023/08/24 09:33:47;;;;;;;;;;;25.90;61.90;;;;;;5051509;28;19920;-54
2023/08/24 09:36:13;;;;;;;;;;;25.90;61.60;;;;;;5054782;28;19923;-54
2023/08/24 09:38:45;;;;;;;;;;;25.90;61.80;;;;;;5054656;28;19909;-53
2023/08/24 09:41:10;;;;;;;;;;;26.00;62.20;;;;;;5053334;28;19913;-54
2023/08/24 09:43:36;;;;;;;;;;;26.00;62.70;;;;;;5035973;28;19974;-55
2023/08/24 09:46:03;;;;;;;;;;;26.10;62.70;;;;;;5035875;28;19913;-54
2023/08/24 09:48:28;;;;;;;;;;;26.20;62.70;;;;;;5039597;28;19995;-56
2023/08/24 09:50:53;;;;;;;;;;;26.20;62.90;;;;;;5055599;28;19955;-54
2023/08/24 09:53:20;;;;;;;;;;;26.20;62.70;;;;;;5070973;28;19913;-55
2023/08/24 09:55:56;;;;;;;;;;;26.20;62.80;;;;;;5054744;28;20391;-55
2023/08/24 09:58:22;;;;;;;;;;;26.20;62.40;;;;;;5054580;28;20377;-55
2023/08/24 10:00:48;;;;;;;;;;;26.30;62.50;;;;;;5054686;28;19919;-55
2023/08/24 10:03:20;;;;;;;;;;;26.30;61.90;;;;;;5053937;28;20289;-54
2023/08/24 10:05:57;;;;;;;;;;;26.20;61.90;;;;;;5049020;28;19917;-54
2023/08/24 10:08:27;;;;;;;;;;;26.30;62.80;;;;;;5060855;28;19919;-54
2023/08/24 10:10:53;;;;;;;;;;;26.30;63.40;;;;;;5055272;28;19913;-55
2023/08/24 10:13:21;;;;;;;;;;;26.40;62.30;;;;;;5052826;28;20637;-55
2023/08/24 10:15:47;;;;;;;;;;;26.40;61.80;;;;;;5055160;28;20385;-56
2023/08/24 10:18:13;;;;;;;;;;;26.20;61.80;;;;;;5055186;28;19919;-55
2023/08/24 10:20:38;;;;;;;;;;;26.30;62.10;;;;;;5068682;28;19962;-54
2023/08/24 10:23:04;;;;;;;;;;;26.40;63.00;;;;;;5055047;28;19913;-55
2023/08/24 10:25:29;;;;;;;;;;;26.40;63.00;;;;;;5054243;28;19916;-54
2023/08/24 10:27:55;;;;;;;;;;;26.30;62.80;;;;;;5053757;28;20353;-54
2023/08/24 10:30:20;;;;;;;;;;;26.40;62.40;;;;;;5041022;28;19920;-54
2023/08/24 10:32:48;;;;;;;;;;;26.40;62.00;;;;;;5033317;28;20319;-54
2023/08/24 10:35:15;;;;;;;;;;;26.50;62.20;;;;;;5046057;28;20300;-54
2023/08/24 10:37:41;;;;;;;;;;;26.50;62.00;;;;;;5054481;28;19909;-55
2023/08/24 10:40:07;;;;;;;;;;;26.60;62.10;;;;;;5067805;28;19920;-54
2023/08/24 10:42:45;;;;;;;;;;;26.60;61.70;;;;;;5068988;28;19917;-54
2023/08/24 10:45:14;;;;;;;;;;;26.60;61.70;;;;;;5054647;28;20229;-55
2023/08/24 10:47:43;;;;;;;;;;;26.60;61.90;;;;;;5054485;28;19909;-55
2023/08/24 10:50:09;;;;;;;;;;;26.60;62.20;;;;;;5066917;28;19916;-54
2023/08/24 10:52:39;;;;;;;;;;;26.50;62.20;;;;;;5069763;28;20280;-55
2023/08/24 10:55:05;;;;;;;;;;;26.60;62.80;;;;;;5053772;28;20377;-55
2023/08/24 10:57:43;;;;;;;;;;;26.60;62.80;;;;;;5051752;28;19912;-54
2023/08/24 11:00:09;;;;;;;;;;;26.60;62.80;;;;;;5046557;28;19956;-55
2023/08/24 11:02:42;;;;;;;;;;;26.70;63.30;;;;;;5047482;28;20285;-54
2023/08/24 11:05:15;;;;;;;;;;;26.70;62.90;;;;;;5048542;28;19913;-55
2023/08/24 11:07:59;;;;;;;;;;;26.70;61.90;;;;;;5045288;28;19936;-55
2023/08/24 11:10:31;;;;;;;;;;;26.70;62.30;;;;;;5052859;28;20002;-54
2023/08/24 11:13:06;;;;;;;;;;;26.70;62.60;;;;;;5052449;28;19920;-54
2023/08/24 11:15:44;;;;;;;;;;;26.80;61.50;;;;;;5069276;28;19951;-54
2023/08/24 11:18:13;;;;;;;;;;;26.80;61.50;;;;;;5051588;28;19916;-54
2023/08/24 11:20:51;;;;;;;;;;;26.90;62.40;;;;;;5051549;28;20264;-55
2023/08/24 11:23:16;;;;;;;;;;;26.90;62.50;;;;;;5051063;28;19984;-55
2023/08/24 11:25:42;;;;;;;;;;;26.90;62.30;;;;;;5050567;28;19948;-55
2023/08/24 11:28:07;;;;;;;;;;;26.90;62.40;;;;;;5035014;28;19913;-55
2023/08/24 11:30:33;;;;;;;;;;;27.00;62.10;;;;;;5033954;28;19909;-55
2023/08/24 11:32:59;;;;;;;;;;;26.90;62.20;;;;;;5033906;28;19909;-55
2023/08/24 11:35:25;;;;;;;;;;;27.00;62.60;;;;;;5051320;28;20360;-55
2023/08/24 11:37:51;;;;;;;;;;;26.90;62.10;;;;;;5053323;28;19963;-54
2023/08/24 11:40:18;;;;;;;;;;;26.80;62.10;;;;;;5053441;28;19909;-55
2023/08/24 11:42:44;;;;;;;;;;;26.90;62.10;;;;;;5053062;28;20285;-54
2023/08/24 11:45:13;;;;;;;;;;;26.90;63.00;;;;;;5050448;28;19909;-54
2023/08/24 11:47:38;;;;;;;;;;;26.90;62.60;;;;;;5052575;28;20304;-55
2023/08/24 11:50:04;;;;;;;;;;;26.80;63.30;;;;;;5066783;28;19909;-55
2023/08/24 11:52:29;;;;;;;;;;;26.80;62.30;;;;;;5053624;28;19960;-55
2023/08/24 11:54:58;;;;;;;;;;;26.80;63.60;;;;;;5060115;28;20431;-55
2023/08/24 11:57:26;;;;;;;;;;;26.80;63.00;;;;;;5033376;28;20302;-54
2023/08/24 11:59:51;;;;;;;;;;;26.90;62.40;;;;;;5034839;28;19917;-55
2023/08/24 12:02:17;;;;;;;;;;;27.00;62.10;;;;;;5053120;28;19982;-55
2023/08/24 12:04:43;;;;;;;;;;;27.00;62.10;;;;;;5051779;28;19948;-55
2023/08/24 12:07:10;;;;;;;;;;;27.00;62.60;;;;;;5053014;28;19948;-55
2023/08/24 12:09:37;;;;;;;;;;;27.00;62.50;;;;;;5053040;28;19928;-55
2023/08/24 12:12:02;;;;;;;;;;;27.00;63.40;;;;;;5051286;28;19913;-55
2023/08/24 12:14:28;;;;;;;;;;;27.00;63.10;;;;;;5051274;28;19920;-55
2023/08/24 12:16:54;;;;;;;;;;;27.00;63.40;;;;;;5052884;28;19909;-54
2023/08/24 12:19:21;;;;;;;;;;;27.00;62.60;;;;;;5051868;28;19916;-55
2023/08/24 12:21:49;;;;;;;;;;;27.00;62.30;;;;;;5040153;28;20397;-54
2023/08/24 12:24:15;;;;;;;;;;;27.00;62.30;;;;;;5052222;28;19920;-55
2023/08/24 12:26:40;;;;;;;;;;;27.00;62.60;;;;;;5052312;28;19996;-57
2023/08/24 12:29:07;;;;;;;;;;;27.10;61.50;;;;;;5052822;28;19963;-55
2023/08/24 12:31:32;;;;;;;;;;;27.20;61.00;;;;;;5052973;28;19920;-54
2023/08/24 12:34:03;;;;;;;;;;;27.10;61.30;;;;;;5051428;28;19916;-54
2023/08/24 12:36:28;;;;;;;;;;;27.10;61.40;;;;;;5051714;28;20324;-54
2023/08/24 12:38:54;;;;;;;;;;;27.20;61.60;;;;;;5052856;28;19917;-54
2023/08/24 12:41:19;;;;;;;;;;;27.10;60.60;;;;;;5051287;28;19935;-54
2023/08/24 12:43:45;;;;;;;;;;;27.00;60.50;;;;;;5052660;28;19909;-56
2023/08/24 12:46:10;;;;;;;;;;;27.00;60.50;;;;;;5052658;28;19940;-55
2023/08/24 12:48:36;;;;;;;;;;;27.10;62.30;;;;;;5052605;28;19959;-55
2023/08/24 12:51:01;;;;;;;;;;;27.10;61.50;;;;;;5051247;28;19963;-54
2023/08/24 12:53:26;;;;;;;;;;;27.10;61.20;;;;;;5052645;28;19912;-55
2023/08/24 12:55:52;;;;;;;;;;;27.10;61.00;;;;;;5055516;28;19912;-54
2023/08/24 12:58:19;;;;;;;;;;;27.10;60.70;;;;;;5056552;28;19909;-55
2023/08/24 13:00:45;;;;;;;;;;;27.10;61.30;;;;;;5054959;28;19913;-55
2023/08/24 13:03:11;;;;;;;;;;;27.10;61.30;;;;;;5070842;28;19950;-55
2023/08/24 13:05:36;;;;;;;;;;;27.20;61.80;;;;;;5055093;28;20007;-55
2023/08/24 13:08:02;;;;;;;;;;;27.20;61.80;;;;;;5055203;28;19969;-55
2023/08/24 13:10:28;;;;;;;;;;;27.30;61.30;;;;;;5055699;28;19913;-55
2023/08/24 13:12:53;;;;;;;;;;;27.30;62.50;;;;;;5053638;28;19956;-54
2023/08/24 13:15:20;;;;;;;;;;;27.20;61.40;;;;;;5056017;28;20011;-54
2023/08/24 13:17:45;;;;;;;;;;;27.30;61.10;;;;;;5069460;28;19935;-55
2023/08/24 13:20:10;;;;;;;;;;;27.30;60.70;;;;;;5054130;28;20016;-54
2023/08/24 13:22:36;;;;;;;;;;;27.40;60.20;;;;;;5056064;28;20285;-55
2023/08/24 13:25:01;;;;;;;;;;;27.40;60.80;;;;;;5055397;28;19959;-54
2023/08/24 13:27:27;;;;;;;;;;;27.40;61.10;;;;;;5055197;28;19913;-54
2023/08/24 13:29:56;;;;;;;;;;;27.50;61.60;;;;;;5055951;28;20365;-55
2023/08/24 13:32:22;;;;;;;;;;;27.50;60.80;;;;;;5070959;28;19959;-54
2023/08/24 13:34:47;;;;;;;;;;;27.50;61.10;;;;;;5069994;28;19916;-55
2023/08/24 13:37:13;;;;;;;;;;;27.50;60.50;;;;;;5052336;28;19928;-55
2023/08/24 13:39:38;;;;;;;;;;;27.50;60.90;;;;;;5051036;28;20001;-55
2023/08/24 13:42:04;;;;;;;;;;;27.50;60.60;;;;;;5048655;28;19913;-54
2023/08/24 13:44:29;;;;;;;;;;;27.40;60.10;;;;;;5044730;28;20402;-54
2023/08/24 13:46:55;;;;;;;;;;;27.40;60.10;;;;;;5035699;28;19994;-55
2023/08/24 13:49:20;;;;;;;;;;;27.30;60.70;;;;;;5036102;28;19916;-54
2023/08/24 13:51:46;;;;;;;;;;;27.30;60.90;;;;;;5046244;28;19979;-54
2023/08/24 13:54:15;;;;;;;;;;;27.30;60.50;;;;;;5055479;28;19914;-55
2023/08/24 13:56:41;;;;;;;;;;;27.30;60.30;;;;;;5054858;28;20373;-55
2023/08/24 13:59:06;;;;;;;;;;;27.20;60.30;;;;;;5055632;28;19915;-54
2023/08/24 14:01:33;;;;;;;;;;;27.20;60.80;;;;;;5054663;28;19913;-55
2023/08/24 14:03:58;;;;;;;;;;;27.20;61.40;;;;;;5054295;28;19999;-54
2023/08/24 14:06:24;;;;;;;;;;;27.20;61.20;;;;;;5035547;28;20442;-55
2023/08/24 14:08:49;;;;;;;;;;;27.20;60.80;;;;;;5055361;28;19912;-55
2023/08/24 14:11:16;;;;;;;;;;;27.20;61.10;;;;;;5055307;28;20361;-55